sensor_id;sensor_type;location;lat;lon;timestamp;temperature;humidity
42907;DHT22;28552;51.146;6.576;2023-12-04T00:02:57;-0.10;99.90
42907;DHT22;28552;51.146;6.576;2023-12-04T00:05:57;-0.10;99.90
42907;DHT22;28552;51.146;6.576;2023-12-04T00:08:58;-0.10;99.90
42907;DHT22;28552;51.146;6.576;2023-12-04T00:11:58;-0.10;99.90
42907;DHT22;28552;51.146;6.576;2023-12-04T00:14:59;0.00;99.90
42907;DHT22;28552;51.146;6.576;2023-12-04T00:17:59;0.00;99.90
42907;DHT22;28552;51.146;6.576;2023-12-04T00:21:00;0.00;99.90
42907;DHT22;28552;51.146;6.576;2023-12-04T00:24:00;-0.10;99.90
42907;DHT22;28552;51.146;6.576;2023-12-04T00:27:01;-0.10;99.90
42907;DHT22;28552;51.146;6.576;2023-12-04T00:30:01;-0.10;99.90
42907;DHT22;28552;51.146;6.576;2023-12-04T00:33:04;-0.10;99.90
42907;DHT22;28552;51.146;6.576;2023-12-04T00:36:05;-0.10;99.90
42907;DHT22;28552;51.146;6.576;2023-12-04T00:39:05;-0.10;99.90
42907;DHT22;28552;51.146;6.576;2023-12-04T00:42:06;-0.10;99.90
42907;DHT22;28552;51.146;6.576;2023-12-04T00:45:07;-0.10;99.90
42907;DHT22;28552;51.146;6.576;2023-12-04T00:48:07;-0.10;99.90
42907;DHT22;28552;51.146;6.576;2023-12-04T00:51:08;-0.10;99.90
42907;DHT22;28552;51.146;6.576;2023-12-04T00:54:08;-0.10;99.90
42907;DHT22;28552;51.146;6.576;2023-12-04T00:57:09;-0.10;99.90
42907;DHT22;28552;51.146;6.576;2023-12-04T01:00:10;-0.10;99.90
42907;DHT22;28552;51.146;6.576;2023-12-04T01:03:10;-0.10;99.90
42907;DHT22;28552;51.146;6.576;2023-12-04T01:06:21;-0.10;99.90
42907;DHT22;28552;51.146;6.576;2023-12-04T01:09:23;-0.10;99.90
42907;DHT22;28552;51.146;6.576;2023-12-04T01:12:24;-0.10;99.90
42907;DHT22;28552;51.146;6.576;2023-12-04T01:15:25;-0.10;99.90
42907;DHT22;28552;51.146;6.576;2023-12-04T01:18:25;-0.10;99.90
42907;DHT22;28552;51.146;6.576;2023-12-04T01:21:26;-0.10;99.90
42907;DHT22;28552;51.146;6.576;2023-12-04T01:24:26;-0.10;99.90
42907;DHT22;28552;51.146;6.576;2023-12-04T01:27:27;-0.10;99.90
42907;DHT22;28552;51.146;6.576;2023-12-04T01:30:27;-0.10;99.90
42907;DHT22;28552;51.146;6.576;2023-12-04T01:33:29;-0.10;99.90
42907;DHT22;28552;51.146;6.576;2023-12-04T01:36:30;-0.10;99.90
42907;DHT22;28552;51.146;6.576;2023-12-04T01:39:30;-0.10;99.90
42907;DHT22;28552;51.146;6.576;2023-12-04T01:42:31;-0.10;99.90
42907;DHT22;28552;51.146;6.576;2023-12-04T01:45:31;-0.10;99.90
42907;DHT22;28552;51.146;6.576;2023-12-04T01:48:32;-0.10;99.90
42907;DHT22;28552;51.146;6.576;2023-12-04T01:51:33;-0.10;99.90
42907;DHT22;28552;51.146;6.576;2023-12-04T01:54:35;-0.10;99.90
42907;DHT22;28552;51.146;6.576;2023-12-04T01:57:36;-0.10;99.90
42907;DHT22;28552;51.146;6.576;2023-12-04T02:00:37;-0.10;99.90
42907;DHT22;28552;51.146;6.576;2023-12-04T02:03:38;-0.10;99.90
42907;DHT22;28552;51.146;6.576;2023-12-04T02:06:40;-0.10;99.90
42907;DHT22;28552;51.146;6.576;2023-12-04T02:09:41;-0.10;99.90
42907;DHT22;28552;51.146;6.576;2023-12-04T02:12:41;-0.10;99.90
42907;DHT22;28552;51.146;6.576;2023-12-04T02:15:42;-0.10;99.90
42907;DHT22;28552;51.146;6.576;2023-12-04T02:18:43;-0.10;99.90
42907;DHT22;28552;51.146;6.576;2023-12-04T02:21:44;-0.10;99.90
42907;DHT22;28552;51.146;6.576;2023-12-04T02:24:46;-0.10;99.90
42907;DHT22;28552;51.146;6.576;2023-12-04T02:27:50;-0.10;99.90
42907;DHT22;28552;51.146;6.576;2023-12-04T02:30:51;-0.10;99.90
42907;DHT22;28552;51.146;6.576;2023-12-04T02:33:53;-0.10;99.90
42907;DHT22;28552;51.146;6.576;2023-12-04T02:36:56;-0.10;99.90
42907;DHT22;28552;51.146;6.576;2023-12-04T02:39:58;-0.10;99.90
42907;DHT22;28552;51.146;6.576;2023-12-04T02:42:59;-0.10;99.90
42907;DHT22;28552;51.146;6.576;2023-12-04T02:45:59;-0.10;99.90
42907;DHT22;28552;51.146;6.576;2023-12-04T02:49:00;-0.10;99.90
42907;DHT22;28552;51.146;6.576;2023-12-04T02:52:01;-0.10;99.90
42907;DHT22;28552;51.146;6.576;2023-12-04T02:55:03;-0.10;99.90
42907;DHT22;28552;51.146;6.576;2023-12-04T02:58:04;-0.10;99.90
42907;DHT22;28552;51.146;6.576;2023-12-04T03:01:05;-0.10;99.90
42907;DHT22;28552;51.146;6.576;2023-12-04T03:04:05;-0.10;99.90
42907;DHT22;28552;51.146;6.576;2023-12-04T03:07:06;-0.10;99.90
42907;DHT22;28552;51.146;6.576;2023-12-04T03:10:07;-0.10;99.90
42907;DHT22;28552;51.146;6.576;2023-12-04T03:13:07;-0.10;99.90
42907;DHT22;28552;51.146;6.576;2023-12-04T03:16:17;-0.10;99.90
42907;DHT22;28552;51.146;6.576;2023-12-04T03:19:17;-0.10;99.90
42907;DHT22;28552;51.146;6.576;2023-12-04T03:22:18;-0.10;99.90
42907;DHT22;28552;51.146;6.576;2023-12-04T03:25:18;-0.10;99.90
42907;DHT22;28552;51.146;6.576;2023-12-04T03:28:19;-0.10;99.90
42907;DHT22;28552;51.146;6.576;2023-12-04T03:31:20;-0.10;99.90
42907;DHT22;28552;51.146;6.576;2023-12-04T03:34:21;-0.20;99.90
42907;DHT22;28552;51.146;6.576;2023-12-04T03:37:21;-0.10;99.90
42907;DHT22;28552;51.146;6.576;2023-12-04T03:40:22;-0.10;99.90
42907;DHT22;28552;51.146;6.576;2023-12-04T03:43:22;-0.10;99.90
42907;DHT22;28552;51.146;6.576;2023-12-04T03:46:23;-0.10;99.90
42907;DHT22;28552;51.146;6.576;2023-12-04T03:49:23;-0.20;99.90
42907;DHT22;28552;51.146;6.576;2023-12-04T03:52:24;-0.10;99.90
42907;DHT22;28552;51.146;6.576;2023-12-04T03:55:24;-0.10;99.90
42907;DHT22;28552;51.146;6.576;2023-12-04T03:58:25;-0.10;99.90
42907;DHT22;28552;51.146;6.576;2023-12-04T04:01:25;-0.10;99.90
42907;DHT22;28552;51.146;6.576;2023-12-04T04:04:26;-0.10;99.90
42907;DHT22;28552;51.146;6.576;2023-12-04T04:07:26;-0.10;99.90
42907;DHT22;28552;51.146;6.576;2023-12-04T04:10:27;-0.10;99.90
42907;DHT22;28552;51.146;6.576;2023-12-04T04:13:27;-0.10;99.90
42907;DHT22;28552;51.146;6.576;2023-12-04T04:16:28;-0.10;99.90
42907;DHT22;28552;51.146;6.576;2023-12-04T04:19:29;-0.10;99.90
42907;DHT22;28552;51.146;6.576;2023-12-04T04:22:29;-0.10;99.90
42907;DHT22;28552;51.146;6.576;2023-12-04T04:25:30;-0.10;99.90
42907;DHT22;28552;51.146;6.576;2023-12-04T04:28:30;-0.10;99.90
42907;DHT22;28552;51.146;6.576;2023-12-04T04:31:31;-0.10;99.90
42907;DHT22;28552;51.146;6.576;2023-12-04T04:34:31;-0.10;99.90
42907;DHT22;28552;51.146;6.576;2023-12-04T04:37:32;-0.10;99.90
42907;DHT22;28552;51.146;6.576;2023-12-04T04:40:32;-0.20;99.90
42907;DHT22;28552;51.146;6.576;2023-12-04T04:43:33;-0.20;99.90
42907;DHT22;28552;51.146;6.576;2023-12-04T04:46:33;-0.20;99.90
42907;DHT22;28552;51.146;6.576;2023-12-04T04:49:34;-0.20;99.90
42907;DHT22;28552;51.146;6.576;2023-12-04T04:52:34;-0.20;99.90
42907;DHT22;28552;51.146;6.576;2023-12-04T04:55:35;-0.20;99.90
42907;DHT22;28552;51.146;6.576;2023-12-04T04:58:35;-0.20;99.90
42907;DHT22;28552;51.146;6.576;2023-12-04T05:01:36;-0.20;99.90
42907;DHT22;28552;51.146;6.576;2023-12-04T05:04:37;-0.20;99.90
42907;DHT22;28552;51.146;6.576;2023-12-04T05:07:37;-0.20;99.90
42907;DHT22;28552;51.146;6.576;2023-12-04T05:10:39;-0.20;99.90
42907;DHT22;28552;51.146;6.576;2023-12-04T05:13:39;-0.20;99.90
42907;DHT22;28552;51.146;6.576;2023-12-04T05:16:40;-0.20;99.90
42907;DHT22;28552;51.146;6.576;2023-12-04T05:19:40;-0.20;99.90
42907;DHT22;28552;51.146;6.576;2023-12-04T05:22:41;-0.30;99.90
42907;DHT22;28552;51.146;6.576;2023-12-04T05:25:41;-0.30;99.90
42907;DHT22;28552;51.146;6.576;2023-12-04T05:28:42;-0.30;99.90
42907;DHT22;28552;51.146;6.576;2023-12-04T05:31:42;-0.30;99.90
42907;DHT22;28552;51.146;6.576;2023-12-04T05:34:43;-0.30;99.90
42907;DHT22;28552;51.146;6.576;2023-12-04T05:37:45;-0.20;99.90
42907;DHT22;28552;51.146;6.576;2023-12-04T05:40:46;-0.20;99.90
42907;DHT22;28552;51.146;6.576;2023-12-04T05:43:47;-0.20;99.90
42907;DHT22;28552;51.146;6.576;2023-12-04T05:46:47;-0.20;99.90
42907;DHT22;28552;51.146;6.576;2023-12-04T05:49:48;-0.20;99.90
42907;DHT22;28552;51.146;6.576;2023-12-04T05:52:48;-0.20;99.90
42907;DHT22;28552;51.146;6.576;2023-12-04T05:55:49;-0.10;99.90
42907;DHT22;28552;51.146;6.576;2023-12-04T05:58:49;-0.10;99.90
42907;DHT22;28552;51.146;6.576;2023-12-04T06:01:50;-0.10;99.90
42907;DHT22;28552;51.146;6.576;2023-12-04T06:04:50;-0.10;99.90
42907;DHT22;28552;51.146;6.576;2023-12-04T06:07:51;-0.10;99.90
42907;DHT22;28552;51.146;6.576;2023-12-04T06:10:51;0.00;99.90
42907;DHT22;28552;51.146;6.576;2023-12-04T06:13:52;0.00;99.90
42907;DHT22;28552;51.146;6.576;2023-12-04T06:16:52;0.00;99.90
42907;DHT22;28552;51.146;6.576;2023-12-04T06:19:54;0.00;99.90
42907;DHT22;28552;51.146;6.576;2023-12-04T06:22:54;0.10;99.90
42907;DHT22;28552;51.146;6.576;2023-12-04T06:25:55;0.10;99.90
42907;DHT22;28552;51.146;6.576;2023-12-04T06:28:57;0.10;99.90
42907;DHT22;28552;51.146;6.576;2023-12-04T06:31:58;0.10;99.90
42907;DHT22;28552;51.146;6.576;2023-12-04T06:34:59;0.10;99.90
42907;DHT22;28552;51.146;6.576;2023-12-04T06:38:05;0.10;99.90
42907;DHT22;28552;51.146;6.576;2023-12-04T06:41:07;0.10;99.90
42907;DHT22;28552;51.146;6.576;2023-12-04T06:44:09;0.10;99.90
42907;DHT22;28552;51.146;6.576;2023-12-04T06:47:10;0.10;99.90
42907;DHT22;28552;51.146;6.576;2023-12-04T06:50:12;0.10;99.90
42907;DHT22;28552;51.146;6.576;2023-12-04T06:53:12;0.10;99.90
42907;DHT22;28552;51.146;6.576;2023-12-04T06:56:15;0.10;99.90
42907;DHT22;28552;51.146;6.576;2023-12-04T06:59:16;0.10;99.90
42907;DHT22;28552;51.146;6.576;2023-12-04T07:02:17;0.10;99.90
42907;DHT22;28552;51.146;6.576;2023-12-04T07:05:19;0.10;99.90
42907;DHT22;28552;51.146;6.576;2023-12-04T07:08:20;0.10;99.90
42907;DHT22;28552;51.146;6.576;2023-12-04T07:11:20;0.10;99.90
42907;DHT22;28552;51.146;6.576;2023-12-04T07:14:21;0.10;99.90
42907;DHT22;28552;51.146;6.576;2023-12-04T07:17:21;0.20;99.90
42907;DHT22;28552;51.146;6.576;2023-12-04T07:20:22;0.20;99.90
42907;DHT22;28552;51.146;6.576;2023-12-04T07:23:24;0.20;99.90
42907;DHT22;28552;51.146;6.576;2023-12-04T07:26:24;0.20;99.90
42907;DHT22;28552;51.146;6.576;2023-12-04T07:29:25;0.10;99.90
42907;DHT22;28552;51.146;6.576;2023-12-04T07:32:25;0.20;99.90
42907;DHT22;28552;51.146;6.576;2023-12-04T07:35:26;0.20;99.90
42907;DHT22;28552;51.146;6.576;2023-12-04T07:38:26;0.20;99.90
42907;DHT22;28552;51.146;6.576;2023-12-04T07:41:27;0.20;99.90
42907;DHT22;28552;51.146;6.576;2023-12-04T07:44:28;0.20;99.90
42907;DHT22;28552;51.146;6.576;2023-12-04T07:47:28;0.20;99.90
42907;DHT22;28552;51.146;6.576;2023-12-04T07:50:29;0.20;99.90
42907;DHT22;28552;51.146;6.576;2023-12-04T07:53:30;0.20;99.90
42907;DHT22;28552;51.146;6.576;2023-12-04T07:56:30;0.20;99.90
42907;DHT22;28552;51.146;6.576;2023-12-04T07:59:31;0.30;99.90
42907;DHT22;28552;51.146;6.576;2023-12-04T08:02:31;0.30;99.90
42907;DHT22;28552;51.146;6.576;2023-12-04T08:05:32;0.30;99.90
42907;DHT22;28552;51.146;6.576;2023-12-04T08:08:32;0.40;99.90
42907;DHT22;28552;51.146;6.576;2023-12-04T08:11:33;0.40;99.90
42907;DHT22;28552;51.146;6.576;2023-12-04T08:14:34;0.50;99.90
42907;DHT22;28552;51.146;6.576;2023-12-04T08:17:35;0.50;99.90
42907;DHT22;28552;51.146;6.576;2023-12-04T08:20:35;0.50;99.90
42907;DHT22;28552;51.146;6.576;2023-12-04T08:23:36;0.50;99.90
42907;DHT22;28552;51.146;6.576;2023-12-04T08:26:37;0.60;99.90
42907;DHT22;28552;51.146;6.576;2023-12-04T08:29:39;0.60;99.90
42907;DHT22;28552;51.146;6.576;2023-12-04T08:32:40;0.60;99.90
42907;DHT22;28552;51.146;6.576;2023-12-04T08:35:41;0.60;99.90
42907;DHT22;28552;51.146;6.576;2023-12-04T08:38:41;0.60;99.90
42907;DHT22;28552;51.146;6.576;2023-12-04T08:41:45;0.60;99.90
42907;DHT22;28552;51.146;6.576;2023-12-04T08:44:46;0.60;99.90
42907;DHT22;28552;51.146;6.576;2023-12-04T08:47:47;0.60;99.90
42907;DHT22;28552;51.146;6.576;2023-12-04T08:50:49;0.60;99.90
42907;DHT22;28552;51.146;6.576;2023-12-04T08:53:50;0.60;99.90
42907;DHT22;28552;51.146;6.576;2023-12-04T08:56:50;0.60;99.90
42907;DHT22;28552;51.146;6.576;2023-12-04T08:59:51;0.60;99.90
42907;DHT22;28552;51.146;6.576;2023-12-04T09:02:52;0.60;99.90
42907;DHT22;28552;51.146;6.576;2023-12-04T09:05:53;0.60;99.90
42907;DHT22;28552;51.146;6.576;2023-12-04T09:08:55;0.60;99.90
42907;DHT22;28552;51.146;6.576;2023-12-04T09:11:56;0.60;99.90
42907;DHT22;28552;51.146;6.576;2023-12-04T09:14:57;0.70;99.90
42907;DHT22;28552;51.146;6.576;2023-12-04T09:17:57;0.70;99.90
42907;DHT22;28552;51.146;6.576;2023-12-04T09:20:58;0.70;99.90
42907;DHT22;28552;51.146;6.576;2023-12-04T09:23:59;0.70;99.90
42907;DHT22;28552;51.146;6.576;2023-12-04T09:26:59;0.80;99.90
42907;DHT22;28552;51.146;6.576;2023-12-04T09:30:01;0.80;99.90
42907;DHT22;28552;51.146;6.576;2023-12-04T09:33:01;0.80;99.90
42907;DHT22;28552;51.146;6.576;2023-12-04T09:36:02;0.80;99.90
42907;DHT22;28552;51.146;6.576;2023-12-04T09:39:03;0.80;99.90
42907;DHT22;28552;51.146;6.576;2023-12-04T09:42:04;0.70;99.90
42907;DHT22;28552;51.146;6.576;2023-12-04T09:45:06;0.70;99.90
42907;DHT22;28552;51.146;6.576;2023-12-04T09:48:08;0.70;99.90
42907;DHT22;28552;51.146;6.576;2023-12-04T09:51:10;0.80;99.90
42907;DHT22;28552;51.146;6.576;2023-12-04T09:54:11;0.80;99.90
42907;DHT22;28552;51.146;6.576;2023-12-04T09:57:12;0.80;99.90
42907;DHT22;28552;51.146;6.576;2023-12-04T10:00:14;0.90;99.90
42907;DHT22;28552;51.146;6.576;2023-12-04T10:03:15;0.90;99.90
42907;DHT22;28552;51.146;6.576;2023-12-04T10:06:16;0.90;99.90
42907;DHT22;28552;51.146;6.576;2023-12-04T10:09:19;1.00;99.90
42907;DHT22;28552;51.146;6.576;2023-12-04T10:12:19;1.00;99.90
42907;DHT22;28552;51.146;6.576;2023-12-04T10:15:22;1.00;99.90
42907;DHT22;28552;51.146;6.576;2023-12-04T10:18:27;1.00;99.90
42907;DHT22;28552;51.146;6.576;2023-12-04T10:21:34;1.10;99.90
42907;DHT22;28552;51.146;6.576;2023-12-04T10:24:35;1.10;99.90
42907;DHT22;28552;51.146;6.576;2023-12-04T10:27:36;1.10;99.90
42907;DHT22;28552;51.146;6.576;2023-12-04T10:30:37;1.10;99.90
42907;DHT22;28552;51.146;6.576;2023-12-04T10:33:40;1.20;99.90
42907;DHT22;28552;51.146;6.576;2023-12-04T10:36:41;1.20;99.90
42907;DHT22;28552;51.146;6.576;2023-12-04T10:39:50;1.20;99.90
42907;DHT22;28552;51.146;6.576;2023-12-04T10:42:51;1.20;99.90
42907;DHT22;28552;51.146;6.576;2023-12-04T10:45:52;1.20;99.90
42907;DHT22;28552;51.146;6.576;2023-12-04T10:48:53;1.20;99.90
42907;DHT22;28552;51.146;6.576;2023-12-04T10:51:55;1.20;99.90
42907;DHT22;28552;51.146;6.576;2023-12-04T10:54:57;1.30;99.90
42907;DHT22;28552;51.146;6.576;2023-12-04T10:58:01;1.30;99.90
42907;DHT22;28552;51.146;6.576;2023-12-04T11:01:06;1.30;99.90
42907;DHT22;28552;51.146;6.576;2023-12-04T11:04:13;1.30;99.90
42907;DHT22;28552;51.146;6.576;2023-12-04T11:07:14;1.30;99.90
42907;DHT22;28552;51.146;6.576;2023-12-04T11:10:15;1.20;99.90
42907;DHT22;28552;51.146;6.576;2023-12-04T11:13:23;1.30;99.90
42907;DHT22;28552;51.146;6.576;2023-12-04T11:16:32;1.30;99.90
42907;DHT22;28552;51.146;6.576;2023-12-04T11:19:47;1.30;99.90
42907;DHT22;28552;51.146;6.576;2023-12-04T11:22:50;1.30;99.90
42907;DHT22;28552;51.146;6.576;2023-12-04T11:25:53;1.30;99.90
42907;DHT22;28552;51.146;6.576;2023-12-04T11:28:54;1.30;99.90
42907;DHT22;28552;51.146;6.576;2023-12-04T11:31:55;1.30;99.90
42907;DHT22;28552;51.146;6.576;2023-12-04T11:34:58;1.30;99.90
42907;DHT22;28552;51.146;6.576;2023-12-04T11:37:59;1.30;99.90
42907;DHT22;28552;51.146;6.576;2023-12-04T11:41:00;1.30;99.90
42907;DHT22;28552;51.146;6.576;2023-12-04T11:44:00;1.30;99.90
42907;DHT22;28552;51.146;6.576;2023-12-04T11:47:05;1.30;99.90
42907;DHT22;28552;51.146;6.576;2023-12-04T11:50:08;1.30;99.90
42907;DHT22;28552;51.146;6.576;2023-12-04T11:53:11;1.30;99.90
42907;DHT22;28552;51.146;6.576;2023-12-04T11:56:14;1.20;99.90
42907;DHT22;28552;51.146;6.576;2023-12-04T11:59:15;1.20;99.90
42907;DHT22;28552;51.146;6.576;2023-12-04T12:02:15;1.20;99.90
42907;DHT22;28552;51.146;6.576;2023-12-04T12:05:17;1.10;99.90
42907;DHT22;28552;51.146;6.576;2023-12-04T12:08:18;1.10;99.90
42907;DHT22;28552;51.146;6.576;2023-12-04T12:11:18;1.10;99.90
42907;DHT22;28552;51.146;6.576;2023-12-04T12:14:21;1.00;99.90
42907;DHT22;28552;51.146;6.576;2023-12-04T12:17:22;1.00;99.90
42907;DHT22;28552;51.146;6.576;2023-12-04T12:20:22;1.00;99.90
42907;DHT22;28552;51.146;6.576;2023-12-04T12:23:23;1.00;99.90
42907;DHT22;28552;51.146;6.576;2023-12-04T12:26:23;0.90;99.90
42907;DHT22;28552;51.146;6.576;2023-12-04T12:29:24;0.90;99.90
42907;DHT22;28552;51.146;6.576;2023-12-04T12:32:26;0.90;99.90
42907;DHT22;28552;51.146;6.576;2023-12-04T12:35:27;0.90;99.90
42907;DHT22;28552;51.146;6.576;2023-12-04T12:38:27;0.80;99.90
42907;DHT22;28552;51.146;6.576;2023-12-04T12:41:30;0.90;99.90
42907;DHT22;28552;51.146;6.576;2023-12-04T12:44:38;0.80;99.90
42907;DHT22;28552;51.146;6.576;2023-12-04T12:47:43;0.80;99.90
42907;DHT22;28552;51.146;6.576;2023-12-04T12:50:46;0.80;99.90
42907;DHT22;28552;51.146;6.576;2023-12-04T12:53:48;0.90;99.90
42907;DHT22;28552;51.146;6.576;2023-12-04T12:56:48;0.90;99.90
42907;DHT22;28552;51.146;6.576;2023-12-04T12:59:49;0.90;99.90
42907;DHT22;28552;51.146;6.576;2023-12-04T13:02:53;0.90;99.90
42907;DHT22;28552;51.146;6.576;2023-12-04T13:05:53;0.90;99.90
42907;DHT22;28552;51.146;6.576;2023-12-04T13:08:54;0.90;99.90
42907;DHT22;28552;51.146;6.576;2023-12-04T13:11:55;1.00;99.90
42907;DHT22;28552;51.146;6.576;2023-12-04T13:14:55;0.90;99.90
42907;DHT22;28552;51.146;6.576;2023-12-04T13:17:56;0.90;99.90
42907;DHT22;28552;51.146;6.576;2023-12-04T13:20:57;0.90;99.90
42907;DHT22;28552;51.146;6.576;2023-12-04T13:23:57;0.90;99.90
42907;DHT22;28552;51.146;6.576;2023-12-04T13:26:58;0.90;99.90
42907;DHT22;28552;51.146;6.576;2023-12-04T13:29:58;0.80;99.90
42907;DHT22;28552;51.146;6.576;2023-12-04T13:32:59;0.90;99.90
42907;DHT22;28552;51.146;6.576;2023-12-04T13:35:59;0.80;99.90
42907;DHT22;28552;51.146;6.576;2023-12-04T13:39:00;0.80;99.90
42907;DHT22;28552;51.146;6.576;2023-12-04T13:42:00;0.80;99.90
42907;DHT22;28552;51.146;6.576;2023-12-04T13:45:16;0.80;99.90
42907;DHT22;28552;51.146;6.576;2023-12-04T13:48:17;0.90;99.90
42907;DHT22;28552;51.146;6.576;2023-12-04T13:51:18;0.90;99.90
42907;DHT22;28552;51.146;6.576;2023-12-04T13:54:21;0.90;99.90
42907;DHT22;28552;51.146;6.576;2023-12-04T13:57:26;0.90;99.90
42907;DHT22;28552;51.146;6.576;2023-12-04T14:00:33;0.90;99.90
42907;DHT22;28552;51.146;6.576;2023-12-04T14:03:34;0.90;99.90
42907;DHT22;28552;51.146;6.576;2023-12-04T14:06:36;0.90;99.90
42907;DHT22;28552;51.146;6.576;2023-12-04T14:09:36;1.00;99.90
42907;DHT22;28552;51.146;6.576;2023-12-04T14:12:37;1.00;99.90
42907;DHT22;28552;51.146;6.576;2023-12-04T14:15:37;1.00;99.90
42907;DHT22;28552;51.146;6.576;2023-12-04T14:18:39;1.00;99.90
42907;DHT22;28552;51.146;6.576;2023-12-04T14:21:40;1.00;99.90
42907;DHT22;28552;51.146;6.576;2023-12-04T14:24:41;0.90;99.90
42907;DHT22;28552;51.146;6.576;2023-12-04T14:27:41;0.90;99.90
42907;DHT22;28552;51.146;6.576;2023-12-04T14:30:44;0.90;99.90
42907;DHT22;28552;51.146;6.576;2023-12-04T14:33:45;0.90;99.90
42907;DHT22;28552;51.146;6.576;2023-12-04T14:36:46;0.90;99.90
42907;DHT22;28552;51.146;6.576;2023-12-04T14:39:46;0.90;99.90
42907;DHT22;28552;51.146;6.576;2023-12-04T14:42:47;1.00;99.90
42907;DHT22;28552;51.146;6.576;2023-12-04T14:45:48;1.00;99.90
42907;DHT22;28552;51.146;6.576;2023-12-04T14:48:48;1.00;99.90
42907;DHT22;28552;51.146;6.576;2023-12-04T14:51:50;1.00;99.90
42907;DHT22;28552;51.146;6.576;2023-12-04T14:54:50;1.00;99.90
42907;DHT22;28552;51.146;6.576;2023-12-04T14:58:06;1.00;99.90
42907;DHT22;28552;51.146;6.576;2023-12-04T15:01:26;1.00;99.90
42907;DHT22;28552;51.146;6.576;2023-12-04T15:04:46;1.00;99.90
42907;DHT22;28552;51.146;6.576;2023-12-04T15:08:02;1.00;99.90
42907;DHT22;28552;51.146;6.576;2023-12-04T15:11:23;1.00;99.90
42907;DHT22;28552;51.146;6.576;2023-12-04T15:14:24;1.00;99.90
42907;DHT22;28552;51.146;6.576;2023-12-04T15:17:41;0.90;99.90
42907;DHT22;28552;51.146;6.576;2023-12-04T15:20:51;0.90;99.90
42907;DHT22;28552;51.146;6.576;2023-12-04T15:23:52;0.90;99.90
42907;DHT22;28552;51.146;6.576;2023-12-04T15:26:53;0.90;99.90
42907;DHT22;28552;51.146;6.576;2023-12-04T15:29:53;0.80;99.90
42907;DHT22;28552;51.146;6.576;2023-12-04T15:32:54;0.80;99.90
42907;DHT22;28552;51.146;6.576;2023-12-04T15:35:54;0.80;99.90
42907;DHT22;28552;51.146;6.576;2023-12-04T15:38:55;0.70;99.90
42907;DHT22;28552;51.146;6.576;2023-12-04T15:41:55;0.70;99.90
42907;DHT22;28552;51.146;6.576;2023-12-04T15:44:56;0.70;99.90
42907;DHT22;28552;51.146;6.576;2023-12-04T15:47:56;0.70;99.90
42907;DHT22;28552;51.146;6.576;2023-12-04T15:50:57;0.60;99.90
42907;DHT22;28552;51.146;6.576;2023-12-04T15:53:58;0.70;99.90
42907;DHT22;28552;51.146;6.576;2023-12-04T15:56:59;0.70;99.90
42907;DHT22;28552;51.146;6.576;2023-12-04T16:00:00;0.70;99.90
42907;DHT22;28552;51.146;6.576;2023-12-04T16:03:01;0.70;99.90
42907;DHT22;28552;51.146;6.576;2023-12-04T16:06:01;0.70;99.90
42907;DHT22;28552;51.146;6.576;2023-12-04T16:09:02;0.70;99.90
42907;DHT22;28552;51.146;6.576;2023-12-04T16:12:04;0.70;99.90
42907;DHT22;28552;51.146;6.576;2023-12-04T16:15:05;0.70;99.90
42907;DHT22;28552;51.146;6.576;2023-12-04T16:18:07;0.70;99.90
42907;DHT22;28552;51.146;6.576;2023-12-04T16:21:09;0.70;99.90
42907;DHT22;28552;51.146;6.576;2023-12-04T16:24:09;0.70;99.90
42907;DHT22;28552;51.146;6.576;2023-12-04T16:27:11;0.70;99.90
42907;DHT22;28552;51.146;6.576;2023-12-04T16:30:12;0.70;99.90
42907;DHT22;28552;51.146;6.576;2023-12-04T16:33:13;0.70;99.90
42907;DHT22;28552;51.146;6.576;2023-12-04T16:36:13;0.70;99.90
42907;DHT22;28552;51.146;6.576;2023-12-04T16:39:14;0.70;99.90
42907;DHT22;28552;51.146;6.576;2023-12-04T16:42:16;0.70;99.90
42907;DHT22;28552;51.146;6.576;2023-12-04T16:45:16;0.70;99.90
42907;DHT22;28552;51.146;6.576;2023-12-04T16:48:17;0.70;99.90
42907;DHT22;28552;51.146;6.576;2023-12-04T16:51:17;0.70;99.90
42907;DHT22;28552;51.146;6.576;2023-12-04T16:54:18;0.70;99.90
42907;DHT22;28552;51.146;6.576;2023-12-04T16:57:20;0.70;99.90
42907;DHT22;28552;51.146;6.576;2023-12-04T17:00:22;0.70;99.90
42907;DHT22;28552;51.146;6.576;2023-12-04T17:03:22;0.80;99.90
42907;DHT22;28552;51.146;6.576;2023-12-04T17:06:23;0.70;99.90
42907;DHT22;28552;51.146;6.576;2023-12-04T17:09:26;0.70;99.90
42907;DHT22;28552;51.146;6.576;2023-12-04T17:12:27;0.70;99.90
42907;DHT22;28552;51.146;6.576;2023-12-04T17:15:27;0.70;99.90
42907;DHT22;28552;51.146;6.576;2023-12-04T17:18:28;0.70;99.90
42907;DHT22;28552;51.146;6.576;2023-12-04T17:21:28;0.70;99.90
42907;DHT22;28552;51.146;6.576;2023-12-04T17:24:29;0.70;99.90
42907;DHT22;28552;51.146;6.576;2023-12-04T17:27:30;0.70;99.90
42907;DHT22;28552;51.146;6.576;2023-12-04T17:30:31;0.70;99.90
42907;DHT22;28552;51.146;6.576;2023-12-04T17:33:31;0.70;99.90
42907;DHT22;28552;51.146;6.576;2023-12-04T17:36:32;0.70;99.90
42907;DHT22;28552;51.146;6.576;2023-12-04T17:39:32;0.80;99.90
42907;DHT22;28552;51.146;6.576;2023-12-04T17:42:33;0.80;99.90
42907;DHT22;28552;51.146;6.576;2023-12-04T17:45:34;0.80;99.90
42907;DHT22;28552;51.146;6.576;2023-12-04T17:48:35;0.80;99.90
42907;DHT22;28552;51.146;6.576;2023-12-04T17:51:35;0.80;99.90
42907;DHT22;28552;51.146;6.576;2023-12-04T17:54:37;0.80;99.90
42907;DHT22;28552;51.146;6.576;2023-12-04T17:57:37;0.80;99.90
42907;DHT22;28552;51.146;6.576;2023-12-04T18:00:40;0.80;99.90
42907;DHT22;28552;51.146;6.576;2023-12-04T18:03:41;0.80;99.90
42907;DHT22;28552;51.146;6.576;2023-12-04T18:06:41;0.80;99.90
42907;DHT22;28552;51.146;6.576;2023-12-04T18:09:42;0.80;99.90
42907;DHT22;28552;51.146;6.576;2023-12-04T18:12:43;0.80;99.90
42907;DHT22;28552;51.146;6.576;2023-12-04T18:15:43;0.90;99.90
42907;DHT22;28552;51.146;6.576;2023-12-04T18:18:44;0.80;99.90
42907;DHT22;28552;51.146;6.576;2023-12-04T18:21:44;0.90;99.90
42907;DHT22;28552;51.146;6.576;2023-12-04T18:24:46;0.90;99.90
42907;DHT22;28552;51.146;6.576;2023-12-04T18:27:47;0.90;99.90
42907;DHT22;28552;51.146;6.576;2023-12-04T18:30:48;0.90;99.90
42907;DHT22;28552;51.146;6.576;2023-12-04T18:33:49;0.90;99.90
42907;DHT22;28552;51.146;6.576;2023-12-04T18:36:52;0.90;99.90
42907;DHT22;28552;51.146;6.576;2023-12-04T18:39:55;0.90;99.90
42907;DHT22;28552;51.146;6.576;2023-12-04T18:42:58;1.00;99.90
42907;DHT22;28552;51.146;6.576;2023-12-04T18:46:00;0.90;99.90
42907;DHT22;28552;51.146;6.576;2023-12-04T18:49:00;0.90;99.90
42907;DHT22;28552;51.146;6.576;2023-12-04T18:52:03;1.00;99.90
42907;DHT22;28552;51.146;6.576;2023-12-04T18:55:04;1.00;99.90
42907;DHT22;28552;51.146;6.576;2023-12-04T18:58:06;1.00;99.90
42907;DHT22;28552;51.146;6.576;2023-12-04T19:01:09;1.00;99.90
42907;DHT22;28552;51.146;6.576;2023-12-04T19:04:10;1.00;99.90
42907;DHT22;28552;51.146;6.576;2023-12-04T19:07:11;1.00;99.90
42907;DHT22;28552;51.146;6.576;2023-12-04T19:10:11;1.00;99.90
42907;DHT22;28552;51.146;6.576;2023-12-04T19:13:13;1.00;99.90
42907;DHT22;28552;51.146;6.576;2023-12-04T19:16:13;1.00;99.90
42907;DHT22;28552;51.146;6.576;2023-12-04T19:19:14;1.00;99.90
42907;DHT22;28552;51.146;6.576;2023-12-04T19:22:15;1.00;99.90